sensor_id;sensor_type;location;lat;lon;timestamp;temperature;humidity
40454;DHT22;26160;51.858;4.398;2023-04-25T00:02:06;7.20;99.90
40454;DHT22;26160;51.858;4.398;2023-04-25T00:04:32;7.30;99.90
40454;DHT22;26160;51.858;4.398;2023-04-25T00:06:59;7.30;99.90
40454;DHT22;26160;51.858;4.398;2023-04-25T00:09:27;7.20;99.90
40454;DHT22;26160;51.858;4.398;2023-04-25T00:11:53;7.20;99.90
40454;DHT22;26160;51.858;4.398;2023-04-25T00:14:20;7.10;99.90
40454;DHT22;26160;51.858;4.398;2023-04-25T00:16:46;6.90;99.90
40454;DHT22;26160;51.858;4.398;2023-04-25T00:19:12;6.90;99.90
40454;DHT22;26160;51.858;4.398;2023-04-25T00:21:39;6.80;99.90
40454;DHT22;26160;51.858;4.398;2023-04-25T00:24:08;6.70;99.90
40454;DHT22;26160;51.858;4.398;2023-04-25T00:26:35;6.60;99.90
40454;DHT22;26160;51.858;4.398;2023-04-25T00:29:02;6.50;99.90
40454;DHT22;26160;51.858;4.398;2023-04-25T00:31:28;6.50;99.90
40454;DHT22;26160;51.858;4.398;2023-04-25T00:33:54;6.40;99.90
40454;DHT22;26160;51.858;4.398;2023-04-25T00:36:21;6.40;99.90
40454;DHT22;26160;51.858;4.398;2023-04-25T00:38:47;6.40;99.90
40454;DHT22;26160;51.858;4.398;2023-04-25T00:41:13;6.30;99.90
40454;DHT22;26160;51.858;4.398;2023-04-25T00:43:40;6.30;99.90
40454;DHT22;26160;51.858;4.398;2023-04-25T00:46:07;6.30;99.90
40454;DHT22;26160;51.858;4.398;2023-04-25T00:48:33;6.20;99.90
40454;DHT22;26160;51.858;4.398;2023-04-25T00:50:59;6.20;99.90
40454;DHT22;26160;51.858;4.398;2023-04-25T00:53:27;6.20;99.90
40454;DHT22;26160;51.858;4.398;2023-04-25T00:55:54;6.20;99.90
40454;DHT22;26160;51.858;4.398;2023-04-25T00:58:21;6.30;99.90
40454;DHT22;26160;51.858;4.398;2023-04-25T01:03:24;6.50;99.90
40454;DHT22;26160;51.858;4.398;2023-04-25T01:05:51;6.60;99.90
40454;DHT22;26160;51.858;4.398;2023-04-25T01:08:17;6.70;99.90
40454;DHT22;26160;51.858;4.398;2023-04-25T01:10:43;6.80;99.90
40454;DHT22;26160;51.858;4.398;2023-04-25T01:13:09;6.90;99.90
40454;DHT22;26160;51.858;4.398;2023-04-25T01:15:36;7.00;99.90
40454;DHT22;26160;51.858;4.398;2023-04-25T01:18:03;7.00;99.90
40454;DHT22;26160;51.858;4.398;2023-04-25T01:20:32;7.10;99.90
40454;DHT22;26160;51.858;4.398;2023-04-25T01:22:58;7.10;99.90
40454;DHT22;26160;51.858;4.398;2023-04-25T01:25:25;7.20;99.90
40454;DHT22;26160;51.858;4.398;2023-04-25T01:27:52;7.20;99.90
40454;DHT22;26160;51.858;4.398;2023-04-25T01:30:18;7.20;99.90
40454;DHT22;26160;51.858;4.398;2023-04-25T01:32:44;7.20;99.90
40454;DHT22;26160;51.858;4.398;2023-04-25T01:35:11;7.20;99.90
40454;DHT22;26160;51.858;4.398;2023-04-25T01:37:42;7.20;99.90
40454;DHT22;26160;51.858;4.398;2023-04-25T01:40:11;7.20;99.90
40454;DHT22;26160;51.858;4.398;2023-04-25T01:42:40;7.20;99.90
40454;DHT22;26160;51.858;4.398;2023-04-25T01:45:07;7.20;99.90
40454;DHT22;26160;51.858;4.398;2023-04-25T01:47:34;7.20;99.90
40454;DHT22;26160;51.858;4.398;2023-04-25T01:50:04;7.20;99.90
40454;DHT22;26160;51.858;4.398;2023-04-25T01:52:30;7.10;99.90
40454;DHT22;26160;51.858;4.398;2023-04-25T01:54:57;7.20;99.90
40454;DHT22;26160;51.858;4.398;2023-04-25T01:57:23;7.10;99.90
40454;DHT22;26160;51.858;4.398;2023-04-25T01:59:50;7.10;99.90
40454;DHT22;26160;51.858;4.398;2023-04-25T02:02:16;7.10;99.90
40454;DHT22;26160;51.858;4.398;2023-04-25T02:04:43;7.10;99.90
40454;DHT22;26160;51.858;4.398;2023-04-25T02:07:09;7.10;99.90
40454;DHT22;26160;51.858;4.398;2023-04-25T02:09:35;7.00;99.90
40454;DHT22;26160;51.858;4.398;2023-04-25T02:12:01;7.10;99.90
40454;DHT22;26160;51.858;4.398;2023-04-25T02:14:27;7.10;99.90
40454;DHT22;26160;51.858;4.398;2023-04-25T02:16:54;7.10;99.90
40454;DHT22;26160;51.858;4.398;2023-04-25T02:19:20;7.10;99.90
40454;DHT22;26160;51.858;4.398;2023-04-25T02:21:47;7.10;99.90
40454;DHT22;26160;51.858;4.398;2023-04-25T02:24:13;7.20;99.90
40454;DHT22;26160;51.858;4.398;2023-04-25T02:26:39;7.20;99.90
40454;DHT22;26160;51.858;4.398;2023-04-25T02:29:05;7.20;99.90
40454;DHT22;26160;51.858;4.398;2023-04-25T02:31:31;7.10;99.90
40454;DHT22;26160;51.858;4.398;2023-04-25T02:33:57;7.10;99.90
40454;DHT22;26160;51.858;4.398;2023-04-25T02:36:23;7.10;99.90
40454;DHT22;26160;51.858;4.398;2023-04-25T02:38:50;7.10;99.90
40454;DHT22;26160;51.858;4.398;2023-04-25T02:41:16;7.20;99.90
40454;DHT22;26160;51.858;4.398;2023-04-25T02:43:42;7.20;99.90
40454;DHT22;26160;51.858;4.398;2023-04-25T02:46:08;7.20;99.90
40454;DHT22;26160;51.858;4.398;2023-04-25T02:48:34;7.20;99.90
40454;DHT22;26160;51.858;4.398;2023-04-25T02:51:00;7.20;99.90
40454;DHT22;26160;51.858;4.398;2023-04-25T02:53:26;7.20;99.90
40454;DHT22;26160;51.858;4.398;2023-04-25T02:55:53;7.10;99.90
40454;DHT22;26160;51.858;4.398;2023-04-25T02:58:19;7.10;99.90
40454;DHT22;26160;51.858;4.398;2023-04-25T03:00:45;7.00;99.90
40454;DHT22;26160;51.858;4.398;2023-04-25T03:03:11;7.00;99.90
40454;DHT22;26160;51.858;4.398;2023-04-25T03:05:37;7.10;99.90
40454;DHT22;26160;51.858;4.398;2023-04-25T03:08:03;7.10;99.90
40454;DHT22;26160;51.858;4.398;2023-04-25T03:10:30;7.10;99.90
40454;DHT22;26160;51.858;4.398;2023-04-25T03:12:56;7.10;99.90
40454;DHT22;26160;51.858;4.398;2023-04-25T03:15:22;7.10;99.90
40454;DHT22;26160;51.858;4.398;2023-04-25T03:17:48;7.10;99.90
40454;DHT22;26160;51.858;4.398;2023-04-25T03:20:14;7.20;99.90
40454;DHT22;26160;51.858;4.398;2023-04-25T03:22:40;7.20;99.90
40454;DHT22;26160;51.858;4.398;2023-04-25T03:25:07;7.20;99.90
40454;DHT22;26160;51.858;4.398;2023-04-25T03:27:33;7.20;99.90
40454;DHT22;26160;51.858;4.398;2023-04-25T03:29:59;7.20;99.90
40454;DHT22;26160;51.858;4.398;2023-04-25T03:32:25;7.20;99.90
40454;DHT22;26160;51.858;4.398;2023-04-25T03:34:51;7.20;99.90
40454;DHT22;26160;51.858;4.398;2023-04-25T03:37:17;7.20;99.90
40454;DHT22;26160;51.858;4.398;2023-04-25T03:39:43;7.30;99.90
40454;DHT22;26160;51.858;4.398;2023-04-25T03:42:10;7.20;99.90
40454;DHT22;26160;51.858;4.398;2023-04-25T03:44:36;7.20;99.90
40454;DHT22;26160;51.858;4.398;2023-04-25T03:47:02;7.20;99.90
40454;DHT22;26160;51.858;4.398;2023-04-25T03:49:28;7.20;99.90
40454;DHT22;26160;51.858;4.398;2023-04-25T03:51:57;7.20;99.90
40454;DHT22;26160;51.858;4.398;2023-04-25T03:54:24;7.20;99.90
40454;DHT22;26160;51.858;4.398;2023-04-25T03:56:50;7.20;99.90
40454;DHT22;26160;51.858;4.398;2023-04-25T03:59:16;7.20;99.90
40454;DHT22;26160;51.858;4.398;2023-04-25T04:01:42;7.20;99.90
40454;DHT22;26160;51.858;4.398;2023-04-25T04:04:08;7.20;99.90
40454;DHT22;26160;51.858;4.398;2023-04-25T04:06:51;7.20;99.90
40454;DHT22;26160;51.858;4.398;2023-04-25T04:09:18;7.30;99.90
40454;DHT22;26160;51.858;4.398;2023-04-25T04:11:45;6.90;99.90
40454;DHT22;26160;51.858;4.398;2023-04-25T04:14:11;6.30;99.90
40454;DHT22;26160;51.858;4.398;2023-04-25T04:16:37;6.00;99.90
40454;DHT22;26160;51.858;4.398;2023-04-25T04:19:03;5.80;99.90
40454;DHT22;26160;51.858;4.398;2023-04-25T04:21:29;5.70;99.90
40454;DHT22;26160;51.858;4.398;2023-04-25T04:23:55;5.60;99.90
40454;DHT22;26160;51.858;4.398;2023-04-25T04:26:23;5.60;99.90
40454;DHT22;26160;51.858;4.398;2023-04-25T04:28:50;5.60;99.90
40454;DHT22;26160;51.858;4.398;2023-04-25T04:31:17;5.60;99.90
40454;DHT22;26160;51.858;4.398;2023-04-25T04:33:45;5.60;99.90
40454;DHT22;26160;51.858;4.398;2023-04-25T04:36:12;5.60;99.90
40454;DHT22;26160;51.858;4.398;2023-04-25T04:38:39;5.60;99.90
40454;DHT22;26160;51.858;4.398;2023-04-25T04:41:06;5.60;99.90
40454;DHT22;26160;51.858;4.398;2023-04-25T04:43:32;5.60;99.90
40454;DHT22;26160;51.858;4.398;2023-04-25T04:46:02;5.70;99.90
40454;DHT22;26160;51.858;4.398;2023-04-25T04:48:31;5.70;99.90
40454;DHT22;26160;51.858;4.398;2023-04-25T04:51:00;5.70;99.90
40454;DHT22;26160;51.858;4.398;2023-04-25T04:53:26;5.70;99.90
40454;DHT22;26160;51.858;4.398;2023-04-25T04:55:53;5.70;99.90
40454;DHT22;26160;51.858;4.398;2023-04-25T04:58:19;5.80;99.90
40454;DHT22;26160;51.858;4.398;2023-04-25T05:00:45;5.80;99.90
40454;DHT22;26160;51.858;4.398;2023-04-25T05:03:12;5.80;99.90
40454;DHT22;26160;51.858;4.398;2023-04-25T05:05:39;5.70;99.90
40454;DHT22;26160;51.858;4.398;2023-04-25T05:08:06;5.70;99.90
40454;DHT22;26160;51.858;4.398;2023-04-25T05:10:32;5.70;99.90
40454;DHT22;26160;51.858;4.398;2023-04-25T05:12:58;5.70;99.90
40454;DHT22;26160;51.858;4.398;2023-04-25T05:15:24;5.80;99.90
40454;DHT22;26160;51.858;4.398;2023-04-25T05:17:50;5.80;99.90
40454;DHT22;26160;51.858;4.398;2023-04-25T05:20:17;5.90;99.90
40454;DHT22;26160;51.858;4.398;2023-04-25T05:22:44;6.00;99.90
40454;DHT22;26160;51.858;4.398;2023-04-25T05:25:11;6.10;99.90
40454;DHT22;26160;51.858;4.398;2023-04-25T05:27:37;6.30;99.90
40454;DHT22;26160;51.858;4.398;2023-04-25T05:30:04;6.40;99.90
40454;DHT22;26160;51.858;4.398;2023-04-25T05:32:31;6.50;99.90
40454;DHT22;26160;51.858;4.398;2023-04-25T05:34:57;6.50;99.90
40454;DHT22;26160;51.858;4.398;2023-04-25T05:37:23;6.60;99.90
40454;DHT22;26160;51.858;4.398;2023-04-25T05:39:50;6.50;99.90
40454;DHT22;26160;51.858;4.398;2023-04-25T05:42:16;6.60;99.90
40454;DHT22;26160;51.858;4.398;2023-04-25T05:44:42;6.60;99.90
40454;DHT22;26160;51.858;4.398;2023-04-25T05:47:08;6.70;99.90
40454;DHT22;26160;51.858;4.398;2023-04-25T05:49:34;7.00;99.90
40454;DHT22;26160;51.858;4.398;2023-04-25T05:52:00;7.30;99.90
40454;DHT22;26160;51.858;4.398;2023-04-25T05:54:26;7.30;99.90
40454;DHT22;26160;51.858;4.398;2023-04-25T05:56:53;7.30;99.90
40454;DHT22;26160;51.858;4.398;2023-04-25T05:59:19;7.20;99.90
40454;DHT22;26160;51.858;4.398;2023-04-25T06:01:45;7.10;99.90
40454;DHT22;26160;51.858;4.398;2023-04-25T06:04:12;7.00;99.90
40454;DHT22;26160;51.858;4.398;2023-04-25T06:06:38;7.00;99.90
40454;DHT22;26160;51.858;4.398;2023-04-25T06:09:04;7.00;99.90
40454;DHT22;26160;51.858;4.398;2023-04-25T06:11:30;7.00;99.90
40454;DHT22;26160;51.858;4.398;2023-04-25T06:13:56;7.00;99.90
40454;DHT22;26160;51.858;4.398;2023-04-25T06:16:26;7.00;99.90
40454;DHT22;26160;51.858;4.398;2023-04-25T06:18:52;7.00;99.90
40454;DHT22;26160;51.858;4.398;2023-04-25T06:21:18;7.00;99.90
40454;DHT22;26160;51.858;4.398;2023-04-25T06:23:44;7.10;99.90
40454;DHT22;26160;51.858;4.398;2023-04-25T06:26:10;7.00;99.90
40454;DHT22;26160;51.858;4.398;2023-04-25T06:28:36;6.90;99.90
40454;DHT22;26160;51.858;4.398;2023-04-25T06:31:02;7.00;99.90
40454;DHT22;26160;51.858;4.398;2023-04-25T06:33:29;6.90;99.90
40454;DHT22;26160;51.858;4.398;2023-04-25T06:35:55;7.00;99.90
40454;DHT22;26160;51.858;4.398;2023-04-25T06:38:21;7.20;99.90
40454;DHT22;26160;51.858;4.398;2023-04-25T06:40:47;7.60;99.90
40454;DHT22;26160;51.858;4.398;2023-04-25T06:43:13;7.80;99.90
40454;DHT22;26160;51.858;4.398;2023-04-25T06:45:39;7.40;99.90
40454;DHT22;26160;51.858;4.398;2023-04-25T06:48:05;7.10;99.90
40454;DHT22;26160;51.858;4.398;2023-04-25T06:50:32;6.70;99.90
40454;DHT22;26160;51.858;4.398;2023-04-25T06:52:58;6.70;99.90
40454;DHT22;26160;51.858;4.398;2023-04-25T06:55:24;6.80;99.90
40454;DHT22;26160;51.858;4.398;2023-04-25T06:57:50;6.90;99.90
40454;DHT22;26160;51.858;4.398;2023-04-25T07:00:16;6.90;99.90
40454;DHT22;26160;51.858;4.398;2023-04-25T07:02:43;7.00;99.90
40454;DHT22;26160;51.858;4.398;2023-04-25T07:05:09;7.00;99.90
40454;DHT22;26160;51.858;4.398;2023-04-25T07:07:35;7.00;99.90
40454;DHT22;26160;51.858;4.398;2023-04-25T07:10:01;7.00;99.90
40454;DHT22;26160;51.858;4.398;2023-04-25T07:12:27;7.10;99.90
40454;DHT22;26160;51.858;4.398;2023-04-25T07:14:53;7.00;99.90
40454;DHT22;26160;51.858;4.398;2023-04-25T07:17:20;7.10;99.90
40454;DHT22;26160;51.858;4.398;2023-04-25T07:19:46;7.00;99.90
40454;DHT22;26160;51.858;4.398;2023-04-25T07:22:12;7.00;99.90
40454;DHT22;26160;51.858;4.398;2023-04-25T07:24:38;7.20;99.90
40454;DHT22;26160;51.858;4.398;2023-04-25T07:27:04;7.40;99.90
40454;DHT22;26160;51.858;4.398;2023-04-25T07:29:31;7.70;99.90
40454;DHT22;26160;51.858;4.398;2023-04-25T07:31:57;8.00;99.90
40454;DHT22;26160;51.858;4.398;2023-04-25T07:34:23;8.20;99.90
40454;DHT22;26160;51.858;4.398;2023-04-25T07:36:50;8.50;99.90
40454;DHT22;26160;51.858;4.398;2023-04-25T07:39:16;8.80;99.90
40454;DHT22;26160;51.858;4.398;2023-04-25T07:41:42;9.00;99.90
40454;DHT22;26160;51.858;4.398;2023-04-25T07:44:08;9.20;99.90
40454;DHT22;26160;51.858;4.398;2023-04-25T07:46:34;9.60;99.90
40454;DHT22;26160;51.858;4.398;2023-04-25T07:49:00;10.00;99.90
40454;DHT22;26160;51.858;4.398;2023-04-25T07:51:26;10.30;99.90
40454;DHT22;26160;51.858;4.398;2023-04-25T07:53:53;10.30;99.90
40454;DHT22;26160;51.858;4.398;2023-04-25T07:56:19;9.90;99.90
40454;DHT22;26160;51.858;4.398;2023-04-25T07:58:45;9.60;99.90
40454;DHT22;26160;51.858;4.398;2023-04-25T08:01:11;9.20;99.90
40454;DHT22;26160;51.858;4.398;2023-04-25T08:03:37;8.80;99.90
40454;DHT22;26160;51.858;4.398;2023-04-25T08:06:04;8.80;99.90
40454;DHT22;26160;51.858;4.398;2023-04-25T08:08:30;9.30;99.90
40454;DHT22;26160;51.858;4.398;2023-04-25T08:10:56;9.80;99.90
40454;DHT22;26160;51.858;4.398;2023-04-25T08:13:22;9.80;99.90
40454;DHT22;26160;51.858;4.398;2023-04-25T08:15:48;9.60;99.90
40454;DHT22;26160;51.858;4.398;2023-04-25T08:18:14;9.60;99.90
40454;DHT22;26160;51.858;4.398;2023-04-25T08:20:40;9.40;99.90
40454;DHT22;26160;51.858;4.398;2023-04-25T08:23:06;9.20;99.90
40454;DHT22;26160;51.858;4.398;2023-04-25T08:25:33;9.50;99.90
40454;DHT22;26160;51.858;4.398;2023-04-25T08:27:59;10.00;99.90
40454;DHT22;26160;51.858;4.398;2023-04-25T08:30:25;9.90;99.90
40454;DHT22;26160;51.858;4.398;2023-04-25T08:32:52;9.70;99.90
40454;DHT22;26160;51.858;4.398;2023-04-25T08:35:21;9.50;99.90
40454;DHT22;26160;51.858;4.398;2023-04-25T08:37:47;9.70;99.90
40454;DHT22;26160;51.858;4.398;2023-04-25T08:40:15;10.10;99.90
40454;DHT22;26160;51.858;4.398;2023-04-25T08:42:42;10.30;99.90
40454;DHT22;26160;51.858;4.398;2023-04-25T08:45:09;10.30;99.90
40454;DHT22;26160;51.858;4.398;2023-04-25T08:47:37;10.00;99.90
40454;DHT22;26160;51.858;4.398;2023-04-25T08:50:05;9.70;99.90
40454;DHT22;26160;51.858;4.398;2023-04-25T08:52:43;9.70;99.90
40454;DHT22;26160;51.858;4.398;2023-04-25T08:55:12;9.80;99.90
40454;DHT22;26160;51.858;4.398;2023-04-25T08:57:42;9.60;99.90
40454;DHT22;26160;51.858;4.398;2023-04-25T09:00:10;9.30;99.90
40454;DHT22;26160;51.858;4.398;2023-04-25T09:02:38;9.20;99.90
40454;DHT22;26160;51.858;4.398;2023-04-25T09:05:05;9.40;99.90
40454;DHT22;26160;51.858;4.398;2023-04-25T09:07:32;9.60;99.90
40454;DHT22;26160;51.858;4.398;2023-04-25T09:09:59;9.90;99.90
40454;DHT22;26160;51.858;4.398;2023-04-25T09:12:28;10.30;99.90
40454;DHT22;26160;51.858;4.398;2023-04-25T09:15:06;10.80;99.90
40454;DHT22;26160;51.858;4.398;2023-04-25T09:17:33;11.20;99.90
40454;DHT22;26160;51.858;4.398;2023-04-25T09:20:25;11.50;99.90
40454;DHT22;26160;51.858;4.398;2023-04-25T09:23:02;11.20;99.90
40454;DHT22;26160;51.858;4.398;2023-04-25T09:25:34;11.20;99.90
40454;DHT22;26160;51.858;4.398;2023-04-25T09:28:04;11.00;99.90
40454;DHT22;26160;51.858;4.398;2023-04-25T09:30:31;10.40;99.90
40454;DHT22;26160;51.858;4.398;2023-04-25T09:33:04;10.30;99.90
40454;DHT22;26160;51.858;4.398;2023-04-25T09:35:44;10.40;99.90
40454;DHT22;26160;51.858;4.398;2023-04-25T09:38:12;10.90;99.90
40454;DHT22;26160;51.858;4.398;2023-04-25T09:40:43;11.00;99.90
40454;DHT22;26160;51.858;4.398;2023-04-25T09:43:17;10.50;99.90
40454;DHT22;26160;51.858;4.398;2023-04-25T09:45:44;10.30;99.90
40454;DHT22;26160;51.858;4.398;2023-04-25T09:48:12;10.20;99.90
40454;DHT22;26160;51.858;4.398;2023-04-25T09:50:42;10.20;99.90
40454;DHT22;26160;51.858;4.398;2023-04-25T09:53:08;10.40;99.90
40454;DHT22;26160;51.858;4.398;2023-04-25T09:55:34;10.60;99.90
40454;DHT22;26160;51.858;4.398;2023-04-25T09:58:04;11.20;99.90
40454;DHT22;26160;51.858;4.398;2023-04-25T10:00:34;11.80;99.90
40454;DHT22;26160;51.858;4.398;2023-04-25T10:03:01;11.90;99.90
40454;DHT22;26160;51.858;4.398;2023-04-25T10:05:32;11.90;99.90
40454;DHT22;26160;51.858;4.398;2023-04-25T10:08:03;11.60;99.90
40454;DHT22;26160;51.858;4.398;2023-04-25T10:10:30;11.30;99.90
40454;DHT22;26160;51.858;4.398;2023-04-25T10:13:05;10.90;99.90
40454;DHT22;26160;51.858;4.398;2023-04-25T10:15:35;10.70;99.90
40454;DHT22;26160;51.858;4.398;2023-04-25T10:18:05;10.70;99.90
40454;DHT22;26160;51.858;4.398;2023-04-25T10:20:32;10.80;99.90
40454;DHT22;26160;51.858;4.398;2023-04-25T10:23:06;10.30;99.90
40454;DHT22;26160;51.858;4.398;2023-04-25T10:25:33;9.80;99.90
40454;DHT22;26160;51.858;4.398;2023-04-25T10:28:00;9.90;99.90
40454;DHT22;26160;51.858;4.398;2023-04-25T10:30:27;10.90;99.90
40454;DHT22;26160;51.858;4.398;2023-04-25T10:32:55;11.90;99.90
40454;DHT22;26160;51.858;4.398;2023-04-25T10:35:28;11.90;99.90
40454;DHT22;26160;51.858;4.398;2023-04-25T10:38:09;11.20;99.90
40454;DHT22;26160;51.858;4.398;2023-04-25T10:40:36;11.20;99.90
40454;DHT22;26160;51.858;4.398;2023-04-25T10:43:37;11.40;99.90
40454;DHT22;26160;51.858;4.398;2023-04-25T10:46:16;11.30;99.90
40454;DHT22;26160;51.858;4.398;2023-04-25T10:48:50;11.90;99.90
40454;DHT22;26160;51.858;4.398;2023-04-25T10:51:20;11.70;99.90
40454;DHT22;26160;51.858;4.398;2023-04-25T10:56:45;11.20;99.90
40454;DHT22;26160;51.858;4.398;2023-04-25T10:59:17;12.00;99.90
40454;DHT22;26160;51.858;4.398;2023-04-25T11:01:48;12.00;99.90
40454;DHT22;26160;51.858;4.398;2023-04-25T11:04:24;11.70;99.90
40454;DHT22;26160;51.858;4.398;2023-04-25T11:09:45;10.80;99.90
40454;DHT22;26160;51.858;4.398;2023-04-25T11:12:11;11.40;99.90
40454;DHT22;26160;51.858;4.398;2023-04-25T11:14:39;12.30;99.90
40454;DHT22;26160;51.858;4.398;2023-04-25T11:17:05;13.20;99.90
40454;DHT22;26160;51.858;4.398;2023-04-25T11:19:31;13.70;99.90
40454;DHT22;26160;51.858;4.398;2023-04-25T11:21:59;13.40;99.90
40454;DHT22;26160;51.858;4.398;2023-04-25T11:24:29;12.30;99.90
40454;DHT22;26160;51.858;4.398;2023-04-25T11:26:57;11.40;99.90
40454;DHT22;26160;51.858;4.398;2023-04-25T11:29:26;11.00;99.90
40454;DHT22;26160;51.858;4.398;2023-04-25T11:31:54;10.80;99.90
40454;DHT22;26160;51.858;4.398;2023-04-25T11:34:27;11.30;99.90
40454;DHT22;26160;51.858;4.398;2023-04-25T11:36:56;11.90;99.90
40454;DHT22;26160;51.858;4.398;2023-04-25T11:39:24;11.50;99.90
40454;DHT22;26160;51.858;4.398;2023-04-25T11:41:51;11.00;99.90
40454;DHT22;26160;51.858;4.398;2023-04-25T11:44:18;10.80;99.90
40454;DHT22;26160;51.858;4.398;2023-04-25T11:46:45;10.40;99.90
40454;DHT22;26160;51.858;4.398;2023-04-25T11:49:12;10.20;99.90
40454;DHT22;26160;51.858;4.398;2023-04-25T11:51:43;10.40;99.90
40454;DHT22;26160;51.858;4.398;2023-04-25T11:54:10;11.40;99.90
40454;DHT22;26160;51.858;4.398;2023-04-25T11:56:40;11.90;99.90
40454;DHT22;26160;51.858;4.398;2023-04-25T11:59:07;12.90;99.90
40454;DHT22;26160;51.858;4.398;2023-04-25T12:01:34;13.40;99.90
40454;DHT22;26160;51.858;4.398;2023-04-25T12:04:26;12.60;99.90
40454;DHT22;26160;51.858;4.398;2023-04-25T12:06:55;12.10;99.90
40454;DHT22;26160;51.858;4.398;2023-04-25T12:09:32;12.40;99.90
40454;DHT22;26160;51.858;4.398;2023-04-25T12:11:59;12.00;99.90
40454;DHT22;26160;51.858;4.398;2023-04-25T12:14:30;11.50;99.90
40454;DHT22;26160;51.858;4.398;2023-04-25T12:17:02;11.90;99.90
40454;DHT22;26160;51.858;4.398;2023-04-25T12:19:36;12.20;99.90
40454;DHT22;26160;51.858;4.398;2023-04-25T12:22:03;11.40;99.90
40454;DHT22;26160;51.858;4.398;2023-04-25T12:24:29;11.10;99.90
40454;DHT22;26160;51.858;4.398;2023-04-25T12:27:04;11.40;99.90
40454;DHT22;26160;51.858;4.398;2023-04-25T12:29:32;12.10;99.90
40454;DHT22;26160;51.858;4.398;2023-04-25T12:31:58;11.60;99.90
40454;DHT22;26160;51.858;4.398;2023-04-25T12:34:25;12.10;99.90
40454;DHT22;26160;51.858;4.398;2023-04-25T12:36:52;12.10;99.90
40454;DHT22;26160;51.858;4.398;2023-04-25T12:39:23;12.20;99.90
40454;DHT22;26160;51.858;4.398;2023-04-25T12:41:53;12.90;99.90
40454;DHT22;26160;51.858;4.398;2023-04-25T12:44:22;13.20;99.90
40454;DHT22;26160;51.858;4.398;2023-04-25T12:46:48;13.30;99.90
40454;DHT22;26160;51.858;4.398;2023-04-25T12:49:14;13.10;99.90
40454;DHT22;26160;51.858;4.398;2023-04-25T12:51:41;13.30;99.90
40454;DHT22;26160;51.858;4.398;2023-04-25T12:54:07;12.70;99.90
40454;DHT22;26160;51.858;4.398;2023-04-25T12:56:34;12.60;99.90
40454;DHT22;26160;51.858;4.398;2023-04-25T12:59:01;13.40;99.90
40454;DHT22;26160;51.858;4.398;2023-04-25T13:01:29;13.40;99.90
40454;DHT22;26160;51.858;4.398;2023-04-25T13:03:55;14.00;99.90
40454;DHT22;26160;51.858;4.398;2023-04-25T13:06:22;14.30;99.90
40454;DHT22;26160;51.858;4.398;2023-04-25T13:08:48;14.50;99.90
40454;DHT22;26160;51.858;4.398;2023-04-25T13:11:14;14.10;99.90
40454;DHT22;26160;51.858;4.398;2023-04-25T13:13:41;14.50;99.90
40454;DHT22;26160;51.858;4.398;2023-04-25T13:16:10;14.20;99.90
40454;DHT22;26160;51.858;4.398;2023-04-25T13:18:36;13.30;99.90
40454;DHT22;26160;51.858;4.398;2023-04-25T13:21:02;13.10;99.90
40454;DHT22;26160;51.858;4.398;2023-04-25T13:23:29;13.50;99.90
40454;DHT22;26160;51.858;4.398;2023-04-25T13:25:56;13.40;99.90
40454;DHT22;26160;51.858;4.398;2023-04-25T13:28:27;13.60;99.90
40454;DHT22;26160;51.858;4.398;2023-04-25T13:30:54;13.60;99.90
40454;DHT22;26160;51.858;4.398;2023-04-25T13:33:20;14.10;99.90
40454;DHT22;26160;51.858;4.398;2023-04-25T13:35:48;14.40;99.90
40454;DHT22;26160;51.858;4.398;2023-04-25T13:38:23;14.60;99.90
40454;DHT22;26160;51.858;4.398;2023-04-25T13:40:50;14.40;99.90
40454;DHT22;26160;51.858;4.398;2023-04-25T13:43:22;14.80;99.90
40454;DHT22;26160;51.858;4.398;2023-04-25T13:45:49;14.80;99.90
40454;DHT22;26160;51.858;4.398;2023-04-25T13:48:15;14.60;99.90
40454;DHT22;26160;51.858;4.398;2023-04-25T13:50:41;13.20;99.90
40454;DHT22;26160;51.858;4.398;2023-04-25T13:53:08;11.80;99.90
40454;DHT22;26160;51.858;4.398;2023-04-25T13:55:35;11.70;99.90
40454;DHT22;26160;51.858;4.398;2023-04-25T13:58:03;12.70;99.90
40454;DHT22;26160;51.858;4.398;2023-04-25T14:00:39;13.30;99.90
40454;DHT22;26160;51.858;4.398;2023-04-25T14:03:06;13.70;99.90
40454;DHT22;26160;51.858;4.398;2023-04-25T14:05:33;13.10;99.90
40454;DHT22;26160;51.858;4.398;2023-04-25T14:08:07;12.10;99.90
40454;DHT22;26160;51.858;4.398;2023-04-25T14:10:34;11.50;99.90
40454;DHT22;26160;51.858;4.398;2023-04-25T14:13:01;11.00;99.90
40454;DHT22;26160;51.858;4.398;2023-04-25T14:15:30;11.50;99.90
40454;DHT22;26160;51.858;4.398;2023-04-25T14:17:56;11.80;99.90
40454;DHT22;26160;51.858;4.398;2023-04-25T14:20:22;12.50;99.90
40454;DHT22;26160;51.858;4.398;2023-04-25T14:22:49;12.80;99.90
40454;DHT22;26160;51.858;4.398;2023-04-25T14:25:15;12.20;99.90
40454;DHT22;26160;51.858;4.398;2023-04-25T14:27:41;11.60;99.90
40454;DHT22;26160;51.858;4.398;2023-04-25T14:30:08;12.20;99.90
40454;DHT22;26160;51.858;4.398;2023-04-25T14:32:35;12.80;99.90
40454;DHT22;26160;51.858;4.398;2023-04-25T14:35:01;13.10;99.90
40454;DHT22;26160;51.858;4.398;2023-04-25T14:37:27;13.50;99.90
40454;DHT22;26160;51.858;4.398;2023-04-25T14:39:53;13.40;99.90
40454;DHT22;26160;51.858;4.398;2023-04-25T14:42:19;12.90;99.90
40454;DHT22;26160;51.858;4.398;2023-04-25T14:44:45;13.40;99.90
40454;DHT22;26160;51.858;4.398;2023-04-25T14:47:12;13.20;99.90
40454;DHT22;26160;51.858;4.398;2023-04-25T14:49:38;13.30;99.90
40454;DHT22;26160;51.858;4.398;2023-04-25T14:52:04;13.50;99.90
40454;DHT22;26160;51.858;4.398;2023-04-25T14:54:30;13.10;99.90
40454;DHT22;26160;51.858;4.398;2023-04-25T14:56:56;13.30;99.90
40454;DHT22;26160;51.858;4.398;2023-04-25T14:59:23;13.20;99.90
40454;DHT22;26160;51.858;4.398;2023-04-25T15:01:50;13.40;99.90
40454;DHT22;26160;51.858;4.398;2023-04-25T15:04:16;13.00;99.90
40454;DHT22;26160;51.858;4.398;2023-04-25T15:06:43;13.00;99.90
40454;DHT22;26160;51.858;4.398;2023-04-25T15:09:09;13.10;99.90
40454;DHT22;26160;51.858;4.398;2023-04-25T15:11:37;13.20;99.90
40454;DHT22;26160;51.858;4.398;2023-04-25T15:14:03;12.40;99.90
40454;DHT22;26160;51.858;4.398;2023-04-25T15:16:29;11.90;99.90
40454;DHT22;26160;51.858;4.398;2023-04-25T15:18:56;11.90;99.90
40454;DHT22;26160;51.858;4.398;2023-04-25T15:21:22;12.10;99.90
40454;DHT22;26160;51.858;4.398;2023-04-25T15:23:48;12.50;99.90
40454;DHT22;26160;51.858;4.398;2023-04-25T15:26:14;12.50;99.90
40454;DHT22;26160;51.858;4.398;2023-04-25T15:28:41;12.70;99.90
40454;DHT22;26160;51.858;4.398;2023-04-25T15:31:07;12.70;99.90
40454;DHT22;26160;51.858;4.398;2023-04-25T15:33:33;13.00;99.90
40454;DHT22;26160;51.858;4.398;2023-04-25T15:35:59;12.70;99.90
40454;DHT22;26160;51.858;4.398;2023-04-25T15:38:25;12.60;99.90
40454;DHT22;26160;51.858;4.398;2023-04-25T15:40:52;12.00;99.90
40454;DHT22;26160;51.858;4.398;2023-04-25T15:43:18;11.50;99.90
40454;DHT22;26160;51.858;4.398;2023-04-25T15:45:44;11.10;99.90
40454;DHT22;26160;51.858;4.398;2023-04-25T15:48:10;11.10;99.90
40454;DHT22;26160;51.858;4.398;2023-04-25T15:50:36;11.60;99.90